PWSweather.com
Personal Weather Stations
Station Observations
IMAZOWIE6
WarszawaPL

WarszawaPL

Lat: 52.27957, Lon: 21.05489

Elevation: 100

Station Type: WS1080

http://stacjapogody.waw.pl/

High Low Average
Temperature 51.1°F10.6°C 39.9°F4.4°C 43.9°F6.6°C
Dew Point -167.7°F-110.9°C -168.8°F-111.6°C -168.4°F-111.3°C
Winds 0.6 mph 1.0 kmh Calm Calm Calm NCalm N
Wind Gusts 10.2 mph16.4 kmh -- --
Humidity - - -
Pressure 29.08 in984.8 mb 28.85 in977.0 mb -
Precipitation 0.00 in0.0 mm - -
Hour Temp Dew Point Humidity Winds Wind Gusts Pressure Precip Precip Rate Daily Precip Total
12:01 AM 40.3°F4.6°C -168.8°F-111.6°C - Calm Calm -- 29.06 in984.1 mb 0.00 in0.0 mm 0.00 in0.0 mm 0.00 in0.0 mm
12:16 AM 39.9°F4.4°C -168.8°F-111.6°C - Calm Calm 2.8 mph4.5 kmh 29.06 in984.1 mb 0.00 in0.0 mm 0.00 in0.0 mm 0.00 in0.0 mm
12:31 AM 39.9°F4.4°C -168.8°F-111.6°C - Calm Calm -- 29.05 in983.7 mb 0.00 in0.0 mm 0.00 in0.0 mm 0.00 in0.0 mm
12:46 AM 40.3°F4.6°C -168.8°F-111.6°C - Calm Calm -- 29.05 in983.7 mb 0.00 in0.0 mm 0.00 in0.0 mm 0.00 in0.0 mm
01:01 AM 40.5°F4.7°C -168.8°F-111.6°C - Calm Calm -- 29.05 in983.7 mb 0.00 in0.0 mm 0.00 in0.0 mm 0.00 in0.0 mm
01:16 AM 40.6°F4.8°C -168.7°F-111.5°C - Calm Calm 0.6 mph1.0 kmh 29.04 in983.4 mb 0.00 in0.0 mm 0.00 in0.0 mm 0.00 in0.0 mm
01:31 AM 41.0°F5.0°C -168.7°F-111.5°C - Calm Calm -- 29.03 in983.1 mb 0.00 in0.0 mm 0.00 in0.0 mm 0.00 in0.0 mm
01:46 AM 41.2°F5.1°C -168.7°F-111.5°C - Calm Calm 1.4 mph2.3 kmh 29.04 in983.4 mb 0.00 in0.0 mm 0.00 in0.0 mm 0.00 in0.0 mm
02:01 AM 41.0°F5.0°C -168.7°F-111.5°C - Calm Calm -- 29.03 in983.1 mb 0.00 in0.0 mm 0.00 in0.0 mm 0.00 in0.0 mm
02:16 AM 41.2°F5.1°C -168.7°F-111.5°C - Calm Calm -- 29.03 in983.1 mb 0.00 in0.0 mm 0.00 in0.0 mm 0.00 in0.0 mm
02:31 AM 41.2°F5.1°C -168.7°F-111.5°C - Calm Calm -- 29.03 in983.1 mb 0.00 in0.0 mm 0.00 in0.0 mm 0.00 in0.0 mm
02:46 AM 41.0°F5.0°C -168.7°F-111.5°C - Calm Calm -- 29.02 in982.7 mb 0.00 in0.0 mm 0.00 in0.0 mm 0.00 in0.0 mm
03:01 AM 40.8°F4.9°C -168.7°F-111.5°C - Calm Calm -- 29.02 in982.7 mb 0.00 in0.0 mm 0.00 in0.0 mm 0.00 in0.0 mm
03:16 AM 41.2°F5.1°C -168.7°F-111.5°C - Calm Calm -- 29.02 in982.7 mb 0.00 in0.0 mm 0.00 in0.0 mm 0.00 in0.0 mm
03:31 AM 41.0°F5.0°C -168.7°F-111.5°C - Calm Calm -- 29.02 in982.7 mb 0.00 in0.0 mm 0.00 in0.0 mm 0.00 in0.0 mm
03:46 AM 41.2°F5.1°C -168.7°F-111.5°C - Calm Calm -- 29.01 in982.4 mb 0.00 in0.0 mm 0.00 in0.0 mm 0.00 in0.0 mm
04:01 AM 41.0°F5.0°C -168.7°F-111.5°C - Calm Calm -- 29.01 in982.4 mb 0.00 in0.0 mm 0.00 in0.0 mm 0.00 in0.0 mm
04:16 AM 40.6°F4.8°C -168.7°F-111.5°C - Calm Calm 0.6 mph1.0 kmh 29.01 in982.4 mb 0.01 in0.3 mm 0.05 in1.3 mm 0.01 in0.3 mm
04:31 AM 40.6°F4.8°C -168.7°F-111.5°C - Calm Calm -- 29.01 in982.4 mb 0.01 in0.3 mm 0.00 in0.0 mm 0.01 in0.3 mm
04:46 AM 40.5°F4.7°C -168.8°F-111.6°C - Calm Calm 0.6 mph1.0 kmh 29.00 in982.1 mb 0.01 in0.3 mm 0.00 in0.0 mm 0.01 in0.3 mm
05:01 AM 40.5°F4.7°C -168.8°F-111.6°C - Calm Calm -- 29.00 in982.1 mb 0.01 in0.3 mm 0.00 in0.0 mm 0.01 in0.3 mm
05:16 AM 40.8°F4.9°C -168.7°F-111.5°C - Calm Calm -- 29.00 in982.1 mb 0.00 in0.0 mm 0.00 in0.0 mm 0.01 in0.3 mm
05:31 AM 40.8°F4.9°C -168.7°F-111.5°C - Calm Calm -- 29.00 in982.1 mb 0.00 in0.0 mm 0.00 in0.0 mm 0.01 in0.3 mm
05:46 AM 40.8°F4.9°C -168.7°F-111.5°C - Calm Calm 2.0 mph3.2 kmh 29.00 in982.1 mb 0.00 in0.0 mm 0.00 in0.0 mm 0.01 in0.3 mm
06:01 AM 41.0°F5.0°C -168.7°F-111.5°C - Calm Calm 0.6 mph1.0 kmh 29.00 in982.1 mb 0.00 in0.0 mm 0.00 in0.0 mm 0.01 in0.3 mm
06:16 AM 40.8°F4.9°C -168.7°F-111.5°C - Calm Calm -- 29.00 in982.1 mb 0.01 in0.3 mm 0.05 in1.3 mm 0.02 in0.5 mm
06:31 AM 41.0°F5.0°C -168.7°F-111.5°C - Calm Calm -- 29.00 in982.1 mb 0.01 in0.3 mm 0.00 in0.0 mm 0.02 in0.5 mm
06:46 AM 41.2°F5.1°C -168.7°F-111.5°C - Calm Calm -- 29.00 in982.1 mb 0.01 in0.3 mm 0.00 in0.0 mm 0.02 in0.5 mm
07:01 AM 41.4°F5.2°C -168.7°F-111.5°C - Calm Calm -- 29.00 in982.1 mb 0.01 in0.3 mm 0.00 in0.0 mm 0.02 in0.5 mm
07:16 AM 41.2°F5.1°C -168.7°F-111.5°C - Calm Calm -- 29.00 in982.1 mb 0.00 in0.0 mm 0.00 in0.0 mm 0.02 in0.5 mm
07:31 AM 41.4°F5.2°C -168.7°F-111.5°C - Calm Calm 0.6 mph1.0 kmh 29.01 in982.4 mb 0.00 in0.0 mm 0.00 in0.0 mm 0.02 in0.5 mm
07:46 AM 41.4°F5.2°C -168.7°F-111.5°C - Calm Calm 0.6 mph1.0 kmh 29.01 in982.4 mb 0.00 in0.0 mm 0.00 in0.0 mm 0.02 in0.5 mm
08:01 AM 41.7°F5.4°C -168.6°F-111.4°C - Calm Calm -- 29.01 in982.4 mb 0.00 in0.0 mm 0.00 in0.0 mm 0.02 in0.5 mm
08:16 AM 41.7°F5.4°C -168.6°F-111.4°C - Calm Calm -- 29.01 in982.4 mb 0.01 in0.3 mm 0.05 in1.3 mm 0.04 in1.0 mm
08:31 AM 42.4°F5.8°C -168.6°F-111.4°C - Calm Calm 0.6 mph1.0 kmh 29.01 in982.4 mb 0.01 in0.3 mm 0.00 in0.0 mm 0.04 in1.0 mm
08:46 AM 42.6°F5.9°C -168.5°F-111.4°C - Calm Calm 1.4 mph2.3 kmh 29.02 in982.7 mb 0.01 in0.3 mm 0.00 in0.0 mm 0.04 in1.0 mm
09:01 AM 42.8°F6.0°C -168.5°F-111.4°C - Calm Calm 0.6 mph1.0 kmh 29.03 in983.1 mb 0.01 in0.3 mm 0.00 in0.0 mm 0.04 in1.0 mm
09:16 AM 43.2°F6.2°C -168.5°F-111.4°C - Calm Calm -- 29.03 in983.1 mb 0.00 in0.0 mm 0.00 in0.0 mm 0.04 in1.0 mm
09:31 AM 43.5°F6.4°C -168.4°F-111.3°C - Calm Calm 1.4 mph2.3 kmh 29.03 in983.1 mb 0.00 in0.0 mm 0.00 in0.0 mm 0.04 in1.0 mm
09:46 AM 43.7°F6.5°C -168.4°F-111.3°C - Calm Calm -- 29.04 in983.4 mb 0.00 in0.0 mm 0.00 in0.0 mm 0.04 in1.0 mm
10:01 AM 43.9°F6.6°C -168.4°F-111.3°C - Calm Calm 0.6 mph1.0 kmh 29.05 in983.7 mb 0.00 in0.0 mm 0.00 in0.0 mm 0.04 in1.0 mm
10:16 AM 45.3°F7.4°C -168.3°F-111.3°C - Calm Calm 0.6 mph1.0 kmh 29.05 in983.7 mb 0.00 in0.0 mm 0.00 in0.0 mm 0.04 in1.0 mm
10:31 AM 45.5°F7.5°C -168.3°F-111.3°C - Calm Calm 2.0 mph3.2 kmh 29.05 in983.7 mb 0.00 in0.0 mm 0.00 in0.0 mm 0.04 in1.0 mm
10:46 AM 45.1°F7.3°C -168.3°F-111.3°C - Calm Calm 0.6 mph1.0 kmh 29.05 in983.7 mb 0.00 in0.0 mm 0.00 in0.0 mm 0.04 in1.0 mm
11:01 AM 46.2°F7.9°C -168.2°F-111.2°C - Calm Calm 0.6 mph1.0 kmh 29.06 in984.1 mb 0.00 in0.0 mm 0.00 in0.0 mm 0.04 in1.0 mm
11:16 AM 46.6°F8.1°C -168.1°F-111.2°C - Calm Calm -- 29.06 in984.1 mb 0.00 in0.0 mm 0.00 in0.0 mm 0.04 in1.0 mm
11:31 AM 46.8°F8.2°C -168.1°F-111.2°C - Calm Calm -- 29.06 in984.1 mb 0.00 in0.0 mm 0.00 in0.0 mm 0.04 in1.0 mm
11:46 AM 46.8°F8.2°C -168.1°F-111.2°C - Calm Calm -- 29.07 in984.4 mb 0.00 in0.0 mm 0.00 in0.0 mm 0.04 in1.0 mm
12:01 PM 47.3°F8.5°C -168.1°F-111.2°C - Calm Calm -- 29.07 in984.4 mb 0.00 in0.0 mm 0.00 in0.0 mm 0.04 in1.0 mm
12:16 PM 49.1°F9.5°C -167.9°F-111.1°C - Calm Calm -- 29.06 in984.1 mb 0.00 in0.0 mm 0.00 in0.0 mm 0.04 in1.0 mm
12:31 PM 50.2°F10.1°C -167.8°F-111.0°C - Calm Calm -- 29.06 in984.1 mb 0.00 in0.0 mm 0.00 in0.0 mm 0.04 in1.0 mm
12:46 PM 48.9°F9.4°C -167.9°F-111.1°C - Calm Calm -- 29.06 in984.1 mb 0.00 in0.0 mm 0.00 in0.0 mm 0.04 in1.0 mm
01:01 PM 49.3°F9.6°C -167.9°F-111.1°C - Calm Calm -- 29.06 in984.1 mb 0.00 in0.0 mm 0.00 in0.0 mm 0.04 in1.0 mm
01:16 PM 50.0°F10.0°C -167.8°F-111.0°C - Calm Calm -- 29.06 in984.1 mb 0.00 in0.0 mm 0.00 in0.0 mm 0.04 in1.0 mm
01:31 PM 51.1°F10.6°C -167.7°F-110.9°C - Calm Calm -- 29.05 in983.7 mb 0.00 in0.0 mm 0.00 in0.0 mm 0.04 in1.0 mm
01:46 PM 51.1°F10.6°C -167.7°F-110.9°C - Calm Calm -- 29.06 in984.1 mb 0.00 in0.0 mm 0.00 in0.0 mm 0.04 in1.0 mm
02:01 PM 50.9°F10.5°C -167.7°F-110.9°C - Calm Calm 0.6 mph1.0 kmh 29.07 in984.4 mb 0.00 in0.0 mm 0.00 in0.0 mm 0.04 in1.0 mm
02:16 PM 47.5°F8.6°C -168.1°F-111.2°C - Calm Calm -- 29.07 in984.4 mb 0.00 in0.0 mm 0.00 in0.0 mm 0.04 in1.0 mm
02:31 PM 48.7°F9.3°C -167.9°F-111.1°C - Calm Calm -- 29.07 in984.4 mb 0.00 in0.0 mm 0.00 in0.0 mm 0.04 in1.0 mm
02:46 PM 50.2°F10.1°C -167.8°F-111.0°C - Calm Calm -- 29.07 in984.4 mb 0.00 in0.0 mm 0.00 in0.0 mm 0.04 in1.0 mm
03:01 PM 49.1°F9.5°C -167.9°F-111.1°C - Calm Calm -- 29.07 in984.4 mb 0.00 in0.0 mm 0.00 in0.0 mm 0.04 in1.0 mm
03:16 PM 46.9°F8.3°C -168.1°F-111.2°C - Calm Calm -- 29.07 in984.4 mb 0.02 in0.5 mm 0.10 in2.5 mm 0.06 in1.5 mm
03:31 PM 46.0°F7.8°C -168.2°F-111.2°C - Calm Calm -- 29.08 in984.8 mb 0.02 in0.5 mm 0.00 in0.0 mm 0.06 in1.5 mm
03:46 PM 45.9°F7.7°C -168.2°F-111.2°C - Calm Calm -- 29.08 in984.8 mb 0.02 in0.5 mm 0.00 in0.0 mm 0.06 in1.5 mm
04:01 PM 45.9°F7.7°C -168.2°F-111.2°C - Calm Calm -- 29.08 in984.8 mb 0.02 in0.5 mm 0.00 in0.0 mm 0.06 in1.5 mm
04:16 PM 45.7°F7.6°C -168.2°F-111.2°C - Calm Calm -- 29.08 in984.8 mb 0.00 in0.0 mm 0.00 in0.0 mm 0.06 in1.5 mm
04:31 PM 45.3°F7.4°C -168.3°F-111.3°C - Calm Calm -- 29.08 in984.8 mb 0.01 in0.3 mm 0.05 in1.3 mm 0.07 in1.8 mm
04:46 PM 45.0°F7.2°C -168.3°F-111.3°C - Calm Calm -- 29.08 in984.8 mb 0.01 in0.3 mm 0.00 in0.0 mm 0.07 in1.8 mm
05:01 PM 44.8°F7.1°C -168.3°F-111.3°C - Calm Calm 0.6 mph1.0 kmh 29.07 in984.4 mb 0.01 in0.3 mm 0.00 in0.0 mm 0.07 in1.8 mm
05:16 PM 44.8°F7.1°C -168.3°F-111.3°C - Calm Calm -- 29.07 in984.4 mb 0.00 in0.0 mm 0.00 in0.0 mm 0.07 in1.8 mm
05:31 PM 44.8°F7.1°C -168.3°F-111.3°C - Calm Calm -- 29.07 in984.4 mb 0.00 in0.0 mm 0.00 in0.0 mm 0.07 in1.8 mm
05:46 PM 44.2°F6.8°C -168.4°F-111.3°C - Calm Calm -- 29.06 in984.1 mb 0.00 in0.0 mm 0.00 in0.0 mm 0.07 in1.8 mm
06:01 PM 44.1°F6.7°C -168.4°F-111.3°C - Calm Calm -- 29.05 in983.7 mb 0.00 in0.0 mm 0.00 in0.0 mm 0.07 in1.8 mm
06:16 PM 44.1°F6.7°C -168.4°F-111.3°C - Calm Calm -- 29.05 in983.7 mb 0.00 in0.0 mm 0.00 in0.0 mm 0.07 in1.8 mm
06:31 PM 43.9°F6.6°C -168.4°F-111.3°C - Calm Calm -- 29.05 in983.7 mb 0.00 in0.0 mm 0.00 in0.0 mm 0.07 in1.8 mm
06:46 PM 43.9°F6.6°C -168.4°F-111.3°C - Calm Calm -- 29.04 in983.4 mb 0.00 in0.0 mm 0.00 in0.0 mm 0.07 in1.8 mm
07:01 PM 44.2°F6.8°C -168.4°F-111.3°C - Calm Calm -- 29.04 in983.4 mb 0.00 in0.0 mm 0.00 in0.0 mm 0.07 in1.8 mm
07:16 PM 44.2°F6.8°C -168.4°F-111.3°C - Calm Calm -- 29.04 in983.4 mb 0.00 in0.0 mm 0.00 in0.0 mm 0.07 in1.8 mm
07:31 PM 44.2°F6.8°C -168.4°F-111.3°C - Calm Calm -- 29.03 in983.1 mb 0.00 in0.0 mm 0.00 in0.0 mm 0.07 in1.8 mm
07:46 PM 44.2°F6.8°C -168.4°F-111.3°C - Calm Calm -- 29.03 in983.1 mb 0.00 in0.0 mm 0.00 in0.0 mm 0.07 in1.8 mm
08:01 PM 44.4°F6.9°C -168.4°F-111.3°C - Calm Calm -- 29.02 in982.7 mb 0.00 in0.0 mm 0.00 in0.0 mm 0.07 in1.8 mm
08:16 PM 44.4°F6.9°C -168.4°F-111.3°C - Calm Calm 0.6 mph1.0 kmh 29.01 in982.4 mb 0.00 in0.0 mm 0.00 in0.0 mm 0.07 in1.8 mm
08:31 PM 44.4°F6.9°C -168.4°F-111.3°C - Calm Calm -- 29.00 in982.1 mb 0.00 in0.0 mm 0.00 in0.0 mm 0.07 in1.8 mm
08:46 PM 44.4°F6.9°C -168.4°F-111.3°C - Calm Calm -- 29.00 in982.1 mb 0.00 in0.0 mm 0.00 in0.0 mm 0.07 in1.8 mm
09:01 PM 44.2°F6.8°C -168.4°F-111.3°C - Calm Calm -- 29.00 in982.1 mb 0.00 in0.0 mm 0.00 in0.0 mm 0.07 in1.8 mm
09:16 PM 44.2°F6.8°C -168.4°F-111.3°C - Calm Calm 0.6 mph1.0 kmh 28.99 in981.7 mb 0.00 in0.0 mm 0.00 in0.0 mm 0.07 in1.8 mm
09:31 PM 44.1°F6.7°C -168.4°F-111.3°C - Calm Calm -- 28.97 in981.0 mb 0.00 in0.0 mm 0.00 in0.0 mm 0.07 in1.8 mm
09:46 PM 44.2°F6.8°C -168.4°F-111.3°C - Calm Calm 0.6 mph1.0 kmh 28.96 in980.7 mb 0.01 in0.3 mm 0.05 in1.3 mm 0.09 in2.3 mm
10:01 PM 43.9°F6.6°C -168.4°F-111.3°C - Calm Calm 0.6 mph1.0 kmh 28.93 in979.7 mb 0.01 in0.3 mm 0.00 in0.0 mm 0.09 in2.3 mm
10:16 PM 44.1°F6.7°C -168.4°F-111.3°C - Calm Calm 0.6 mph1.0 kmh 28.92 in979.3 mb 0.00 in0.0 mm 0.00 in0.0 mm 0.09 in2.3 mm
10:31 PM 43.7°F6.5°C -168.4°F-111.3°C - Calm Calm 1.4 mph2.3 kmh 28.91 in979.0 mb 0.00 in0.0 mm 0.00 in0.0 mm 0.09 in2.3 mm
10:46 PM 44.1°F6.7°C -168.4°F-111.3°C - Calm Calm 10.2 mph16.4 kmh 28.90 in978.7 mb 0.00 in0.0 mm 0.00 in0.0 mm 0.09 in2.3 mm
11:01 PM 44.1°F6.7°C -168.4°F-111.3°C - 0.6 mph N1.0 kmh N 9.6 mph15.4 kmh 28.89 in978.3 mb 0.00 in0.0 mm 0.00 in0.0 mm 0.09 in2.3 mm
11:16 PM 44.4°F6.9°C -168.4°F-111.3°C - Calm Calm 2.8 mph4.5 kmh 28.87 in977.7 mb 0.00 in0.0 mm 0.00 in0.0 mm 0.09 in2.3 mm
11:31 PM 44.2°F6.8°C -168.4°F-111.3°C - Calm Calm 0.6 mph1.0 kmh 28.86 in977.3 mb 0.00 in0.0 mm 0.00 in0.0 mm 0.09 in2.3 mm
11:46 PM 44.4°F6.9°C -168.4°F-111.3°C - Calm Calm 0.6 mph1.0 kmh 28.85 in977.0 mb 0.00 in0.0 mm 0.00 in0.0 mm 0.09 in2.3 mm